createdAt,value
2019-05-17T00:03:33.809Z,59.63
2019-05-17T00:08:38.371Z,58.97
2019-05-17T00:13:42.091Z,58.73
2019-05-17T00:18:46.401Z,61.33
2019-05-17T00:23:50.013Z,56.77
2019-05-17T00:28:53.647Z,56.57
2019-05-17T00:33:57.241Z,54.07
2019-05-17T00:39:00.811Z,53.73
2019-05-17T00:44:06.327Z,53.90
2019-05-17T00:49:09.746Z,51.80
2019-05-17T00:54:13.314Z,52.27
2019-05-17T00:59:17.238Z,53.03
2019-05-17T01:04:21.003Z,56.63
2019-05-17T01:09:24.586Z,52.90
2019-05-17T01:14:28.455Z,52.13
2019-05-17T01:19:32.042Z,54.07
2019-05-17T01:24:36.881Z,53.83
2019-05-17T01:29:40.637Z,51.90
2019-05-17T01:34:44.188Z,54.47
2019-05-17T01:39:47.775Z,51.73
2019-05-17T01:44:51.332Z,53.02
2019-05-17T01:49:54.918Z,51.30
2019-05-17T01:54:58.581Z,52.93
2019-05-17T02:00:02.236Z,53.47
2019-05-17T02:05:07.598Z,51.80
2019-05-17T02:10:11.703Z,52.83
2019-05-17T02:15:16.578Z,51.18
2019-05-17T02:20:20.634Z,51.35
2019-05-17T02:25:24.330Z,60.10
2019-05-17T02:30:28.315Z,52.58
2019-05-17T02:35:33.643Z,55.43
2019-05-17T02:40:37.173Z,55.07
2019-05-17T02:45:43.407Z,55.40
2019-05-17T02:50:48.262Z,57.78
2019-05-17T02:55:53.879Z,57.73
2019-05-17T03:00:57.051Z,54.13
2019-05-17T03:06:03.126Z,54.40
2019-05-17T03:11:06.271Z,54.70
2019-05-17T03:16:09.907Z,54.97
2019-05-17T03:21:13.810Z,52.80
2019-05-17T03:26:17.475Z,52.70
2019-05-17T03:31:26.684Z,52.27
2019-05-17T03:36:27.234Z,52.37
2019-05-17T03:41:33.831Z,52.27
2019-05-17T03:46:36.282Z,51.73
2019-05-17T03:51:42.594Z,53.00
2019-05-17T03:56:45.719Z,52.53
2019-05-17T04:01:52.526Z,51.67
2019-05-17T04:06:54.731Z,52.00
2019-05-17T04:11:58.371Z,53.03
2019-05-17T04:17:03.034Z,53.57
2019-05-17T04:22:06.807Z,54.17
2019-05-17T04:27:13.413Z,56.50
2019-05-17T04:32:15.628Z,55.33
2019-05-17T04:37:22.615Z,57.33
2019-05-17T04:42:24.526Z,57.03
2019-05-17T04:47:28.282Z,58.70
2019-05-17T04:52:33.636Z,57.57
2019-05-17T04:57:37.080Z,58.40
2019-05-17T05:02:43.723Z,58.10
2019-05-17T05:07:46.098Z,60.07
2019-05-17T05:12:52.305Z,62.53
2019-05-17T05:17:54.946Z,61.60
2019-05-17T05:22:58.903Z,61.03
2019-05-17T05:28:02.593Z,60.73
2019-05-17T05:33:06.275Z,65.00
2019-05-17T05:38:09.866Z,60.00
2019-05-17T05:43:13.527Z,59.77
2019-05-17T05:48:17.212Z,60.27
2019-05-17T05:53:21.837Z,58.37
2019-05-17T05:58:25.634Z,62.53
2019-05-17T06:03:29.258Z,70.00
2019-05-17T06:08:32.843Z,65.67
2019-05-17T06:13:36.461Z,63.43
2019-05-17T06:18:42.323Z,62.17
2019-05-17T06:23:45.344Z,63.03
2019-05-17T06:28:49.117Z,58.13
2019-05-17T06:33:52.731Z,56.27
2019-05-17T06:38:56.314Z,54.53
2019-05-17T06:44:00.015Z,53.90
2019-05-17T06:49:03.702Z,52.90
2019-05-17T06:54:08.147Z,52.40
2019-05-17T06:59:11.884Z,50.43
2019-05-17T07:04:15.507Z,49.25
2019-05-17T07:09:19.523Z,51.05
2019-05-17T07:14:23.239Z,49.42
2019-05-17T07:19:26.879Z,47.70
2019-05-17T07:24:33.360Z,48.83
2019-05-17T07:29:37.026Z,48.45
2019-05-17T07:34:40.573Z,49.77
2019-05-17T07:39:57.600Z,48.48
2019-05-17T07:44:49.858Z,48.93
2019-05-17T07:49:54.642Z,49.67
2019-05-17T07:55:02.306Z,48.92
2019-05-17T08:00:05.566Z,49.83
2019-05-17T08:05:10.209Z,51.23
2019-05-17T08:10:14.438Z,50.30
2019-05-17T08:15:19.769Z,50.15
2019-05-17T08:20:23.670Z,50.97
2019-05-17T08:25:27.366Z,50.28
2019-05-17T08:30:31.051Z,51.50
2019-05-17T08:35:34.630Z,51.13
2019-05-17T08:40:40.391Z,51.42
2019-05-17T08:45:43.608Z,50.60
2019-05-17T08:50:49.324Z,51.67
2019-05-17T08:55:52.754Z,51.98
2019-05-17T09:00:56.327Z,51.85
2019-05-17T09:06:02.147Z,51.33
2019-05-17T09:11:05.425Z,51.15
2019-05-17T09:16:10.743Z,51.58
2019-05-17T09:21:14.379Z,51.77
2019-05-17T09:26:19.939Z,51.23
2019-05-17T09:31:24.484Z,51.35
2019-05-17T09:36:30.284Z,51.40
2019-05-17T09:41:33.347Z,51.58
2019-05-17T09:46:39.440Z,49.93
2019-05-17T09:51:42.465Z,51.80
2019-05-17T09:56:46.138Z,51.10
2019-05-17T10:01:49.956Z,51.15
2019-05-17T10:06:53.627Z,51.48
2019-05-17T10:11:57.302Z,51.45
2019-05-17T10:17:00.947Z,51.28
2019-05-17T10:22:05.199Z,50.90
2019-05-17T10:27:10.931Z,51.05
2019-05-17T10:32:14.204Z,50.73
2019-05-17T10:37:20.342Z,51.40
2019-05-17T10:42:23.078Z,50.90
2019-05-17T10:47:26.643Z,51.08
2019-05-17T10:52:30.354Z,51.45
2019-05-17T10:57:34.167Z,51.05
2019-05-17T11:02:37.836Z,51.60
2019-05-17T11:07:41.466Z,50.78
2019-05-17T11:12:45.106Z,50.95
2019-05-17T11:17:48.746Z,50.92
2019-05-17T11:22:52.362Z,51.23
2019-05-17T11:27:55.976Z,51.20
2019-05-17T11:32:59.692Z,51.28
2019-05-17T11:38:04.070Z,51.42
2019-05-17T11:43:07.685Z,52.10
2019-05-17T11:48:11.421Z,51.53
2019-05-17T11:53:15.043Z,51.23
2019-05-17T11:58:18.779Z,51.58
2019-05-17T12:03:22.492Z,52.33
2019-05-17T12:08:26.180Z,51.20
2019-05-17T12:13:29.778Z,52.60
2019-05-17T12:18:33.354Z,51.95
2019-05-17T12:23:36.976Z,52.33
2019-05-17T12:28:40.642Z,52.45
2019-05-17T12:33:44.240Z,51.83
2019-05-17T12:38:47.894Z,51.35
2019-05-17T12:43:51.499Z,52.10
2019-05-17T12:48:55.150Z,51.88
2019-05-17T12:53:58.806Z,52.30
2019-05-17T12:59:02.547Z,52.75
2019-05-17T13:04:06.128Z,52.73
2019-05-17T13:09:09.801Z,51.85
2019-05-17T13:14:13.466Z,52.73
2019-05-17T13:19:17.170Z,53.48
2019-05-17T13:24:20.751Z,53.65
2019-05-17T13:29:24.325Z,53.13
2019-05-17T13:34:27.937Z,52.93
2019-05-17T13:39:31.877Z,52.88
2019-05-17T13:44:35.471Z,52.17
2019-05-17T13:49:39.054Z,52.38
2019-05-17T13:54:42.707Z,52.08
2019-05-17T13:59:46.379Z,52.48
2019-05-17T14:04:50.008Z,52.25
2019-05-17T14:09:53.801Z,51.98
2019-05-17T14:14:57.389Z,51.13
2019-05-17T14:20:01.090Z,51.10
2019-05-17T14:25:06.521Z,51.15
2019-05-17T14:30:11.018Z,51.32
2019-05-17T14:35:14.790Z,51.28
2019-05-17T14:40:19.619Z,51.10
2019-05-17T14:45:23.267Z,49.98
2019-05-17T14:50:26.892Z,50.33
2019-05-17T14:55:30.522Z,49.95
2019-05-17T15:00:34.177Z,50.30
2019-05-17T15:05:37.801Z,50.90
2019-05-17T15:10:41.521Z,50.80
2019-05-17T15:15:45.099Z,50.65
2019-05-17T15:20:48.675Z,50.25
2019-05-17T15:25:52.347Z,51.02
2019-05-17T15:30:57.582Z,50.48
2019-05-17T15:36:01.190Z,50.25
2019-05-17T15:41:04.906Z,50.77
2019-05-17T15:46:08.633Z,50.52
2019-05-17T15:51:12.470Z,50.20
2019-05-17T15:56:16.281Z,50.92
2019-05-17T16:01:19.967Z,50.70
2019-05-17T16:06:23.488Z,49.90
2019-05-17T16:11:27.326Z,49.73
2019-05-17T16:16:31.057Z,50.48
2019-05-17T16:21:34.793Z,49.33
2019-05-17T16:26:38.360Z,49.35
2019-05-17T16:31:41.992Z,48.78
2019-05-17T16:36:45.636Z,49.85
2019-05-17T16:41:49.274Z,48.80
2019-05-17T16:46:53.107Z,49.00
2019-05-17T16:51:56.736Z,49.13
2019-05-17T16:57:00.405Z,48.00
2019-05-17T17:02:04.567Z,48.75
2019-05-17T17:07:08.226Z,48.80
2019-05-17T17:12:11.989Z,49.38
2019-05-17T17:17:15.722Z,48.75
2019-05-17T17:22:19.482Z,48.45
2019-05-17T17:27:23.282Z,48.25
2019-05-17T17:32:26.855Z,48.65
2019-05-17T17:37:30.465Z,48.30
2019-05-17T17:42:34.405Z,48.00
2019-05-17T17:47:38.151Z,48.70
2019-05-17T17:52:41.874Z,49.95
2019-05-17T17:57:45.594Z,51.88
2019-05-17T18:02:49.313Z,56.37
2019-05-17T18:07:52.951Z,58.28
2019-05-17T18:12:56.654Z,57.90
2019-05-17T18:18:00.978Z,54.03
2019-05-17T18:23:05.400Z,56.80
2019-05-17T18:28:09.697Z,53.10
2019-05-17T18:33:13.395Z,56.50
2019-05-17T18:38:20.147Z,55.58
2019-05-17T18:43:23.784Z,57.08
2019-05-17T18:48:27.429Z,53.38
2019-05-17T18:53:31.161Z,52.27
2019-05-17T18:58:34.759Z,54.88
2019-05-17T19:03:38.380Z,53.85
2019-05-17T19:08:42.128Z,56.68
2019-05-17T19:13:45.821Z,52.38
2019-05-17T19:18:49.602Z,52.75
2019-05-17T19:23:53.346Z,52.13
2019-05-17T19:28:56.996Z,50.67
2019-05-17T19:34:02.129Z,49.88
2019-05-17T19:39:06.716Z,51.23
2019-05-17T19:44:10.359Z,50.05
2019-05-17T19:49:13.948Z,49.88
2019-05-17T19:54:17.689Z,50.58
2019-05-17T19:59:21.350Z,51.75
2019-05-17T20:04:25.044Z,50.17
2019-05-17T20:09:28.619Z,49.55
2019-05-17T20:14:32.439Z,50.08
2019-05-17T20:19:36.142Z,49.48
2019-05-17T20:24:39.729Z,49.58
2019-05-17T20:29:43.328Z,49.75
2019-05-17T20:34:47.120Z,49.13
2019-05-17T20:39:50.723Z,53.15
2019-05-17T20:44:54.299Z,54.17
2019-05-17T20:49:58.035Z,52.87
2019-05-17T20:55:01.844Z,50.48
2019-05-17T21:00:09.480Z,49.90
2019-05-17T21:05:17.642Z,49.50
2019-05-17T21:10:21.590Z,49.40
2019-05-17T21:15:25.183Z,49.70
2019-05-17T21:20:29.232Z,49.63
2019-05-17T21:25:32.805Z,48.97
2019-05-17T21:30:37.188Z,49.90
2019-05-17T21:35:40.787Z,47.80
2019-05-17T21:40:44.410Z,47.00
2019-05-17T21:46:01.044Z,49.07
2019-05-17T21:50:54.117Z,46.66
2019-05-17T21:55:57.690Z,46.93
2019-05-17T22:01:04.430Z,46.77
2019-05-17T22:06:08.566Z,46.10
2019-05-17T22:11:12.198Z,46.77
2019-05-17T22:16:19.534Z,46.67
2019-05-17T22:21:21.355Z,46.83
2019-05-17T22:26:24.932Z,46.40
2019-05-17T22:31:28.594Z,46.67
2019-05-17T22:36:32.194Z,46.87
2019-05-17T22:41:35.758Z,46.00
2019-05-17T22:46:39.375Z,46.27
2019-05-17T22:51:43.104Z,46.17
2019-05-17T22:56:46.703Z,46.27
2019-05-17T23:01:50.292Z,45.73
2019-05-17T23:06:53.958Z,46.57
2019-05-17T23:11:57.582Z,46.77
2019-05-17T23:17:01.227Z,46.73
2019-05-17T23:22:05.648Z,46.53
2019-05-17T23:27:09.224Z,46.33
2019-05-17T23:32:12.869Z,47.07
2019-05-17T23:37:16.452Z,47.30
2019-05-17T23:42:20.161Z,47.53
2019-05-17T23:47:23.730Z,47.53
2019-05-17T23:52:27.434Z,47.47
2019-05-17T23:57:31.016Z,47.80
